Time;durP1;ratioP1;P1;durP2;ratioP2;P2;SDS_P1;SDS_P2;PMS_P1;PMS_P2;Temp;Humidity;BMP_temperature;BMP_pressure;BME280_temperature;BME280_humidity;BME280_pressure;Samples;Min_cycle;Max_cycle;Signal;HPM_P1;HPM_P2
2021/01/28 00:01:12;;;;;;;1.02;1.00;;;;;;;-1.59;72.21;97151.44;1661932;85;21650;-65
2021/01/28 00:07:10;;;;;;;3.87;2.30;;;;;;;-1.57;72.87;97151.36;1669059;85;21170;-66
2021/01/28 00:09:58;;;;;;;2.15;1.95;;;;;;;-1.56;72.06;97146.64;1668664;85;21583;-64
2021/01/28 00:12:27;;;;;;;3.67;2.40;;;;;;;-1.57;73.30;97151.36;1668999;84;21300;-64
2021/01/28 00:21:34;;;;;;;3.95;2.00;;;;;;;-1.52;73.30;97151.45;1668690;84;21178;-67
2021/01/28 00:24:04;;;;;;;2.02;1.85;;;;;;;-1.46;73.20;97152.38;1668330;85;21245;-64
2021/01/28 00:30:17;;;;;;;2.95;2.65;;;;;;;-1.34;72.37;97154.67;1668779;85;21162;-66
2021/01/28 00:36:17;;;;;;;2.52;2.02;;;;;;;-1.31;72.73;97156.20;1669144;85;21280;-65
2021/01/28 00:39:04;;;;;;;4.80;1.80;;;;;;;-1.25;72.18;97154.59;1668885;85;21175;-65
2021/01/28 00:45:01;;;;;;;2.17;2.02;;;;;;;-1.17;71.60;97155.78;1669056;85;21190;-65
2021/01/28 00:53:59;;;;;;;3.85;2.58;;;;;;;-1.05;72.15;97151.70;1642264;87;21197;-65
2021/01/28 00:56:27;;;;;;;4.00;2.92;;;;;;;-1.06;72.00;97141.95;1669888;85;21199;-64
2021/01/28 00:58:55;;;;;;;4.05;2.40;;;;;;;-1.06;72.00;97141.95;1670077;85;21199;-65
2021/01/28 01:01:25;;;;;;;1.82;1.70;;;;;;;-1.01;71.87;97136.55;1669569;84;21227;-65
2021/01/28 01:03:54;;;;;;;3.47;1.98;;;;;;;-0.98;71.30;97129.58;1670163;85;21172;-65
2021/01/28 01:06:22;;;;;;;4.08;1.98;;;;;;;-0.96;71.21;97132.02;1670293;84;21325;-65
2021/01/28 01:08:50;;;;;;;2.33;1.82;;;;;;;-1.08;72.46;97123.83;1669914;85;21184;-64
2021/01/28 01:11:23;;;;;;;2.58;2.30;;;;;;;-1.08;72.46;97123.83;1671391;83;21587;-64
2021/01/28 01:13:53;;;;;;;2.92;1.62;;;;;;;-1.08;71.91;97123.38;1670049;84;21545;-65
2021/01/28 01:16:25;;;;;;;3.62;2.30;;;;;;;-1.08;71.40;97111.09;1670056;84;21188;-64
2021/01/28 01:18:55;;;;;;;1.98;1.75;;;;;;;-1.07;70.85;97106.36;1670586;84;21191;-63
2021/01/28 01:21:39;;;;;;;1.55;1.45;;;;;;;-1.10;71.08;97101.45;1670104;84;21147;-63
2021/01/28 01:24:33;;;;;;;2.62;1.67;;;;;;;-1.10;71.08;97101.45;1670458;85;21572;-64
2021/01/28 01:27:20;;;;;;;2.80;1.87;;;;;;;-1.08;71.08;97113.63;1670177;85;21124;-66
2021/01/28 01:29:55;;;;;;;2.22;1.72;;;;;;;-1.08;71.08;97113.63;1670060;86;21159;-66
2021/01/28 01:32:26;;;;;;;2.70;1.72;;;;;;;-1.06;71.33;97108.00;1672532;84;21128;-64
2021/01/28 01:38:21;;;;;;;1.50;1.27;;;;;;;-1.07;71.36;97104.63;1670086;86;21184;-64
2021/01/28 01:40:58;;;;;;;4.08;2.05;;;;;;;-1.06;71.67;97100.36;1670347;85;21162;-65
2021/01/28 01:47:50;;;;;;;1.83;1.40;;;;;;;-1.06;71.48;97098.64;1669764;85;21190;-67
2021/01/28 01:50:31;;;;;;;1.80;1.50;;;;;;;-1.10;71.90;97092.54;1670018;84;21172;-63
2021/01/28 01:53:03;;;;;;;1.67;0.93;;;;;;;-1.16;73.00;97101.36;1669840;84;21190;-66
2021/01/28 01:55:48;;;;;;;2.22;1.42;;;;;;;-1.16;73.00;97101.36;1676021;83;21128;-66
2021/01/28 02:02:10;;;;;;;2.22;2.02;;;;;;;-1.15;72.82;97098.36;1670364;85;21576;-63
2021/01/28 02:04:57;;;;;;;2.87;1.32;;;;;;;-1.15;72.82;97098.36;1650551;85;21192;-63
2021/01/28 02:07:44;;;;;;;0.68;0.62;;;;;;;-1.20;73.66;97102.90;1670204;84;21159;-63
2021/01/28 02:10:42;;;;;;;2.35;1.65;;;;;;;-1.16;73.07;97099.26;1670446;84;21301;-65
2021/01/28 02:13:22;;;;;;;1.50;1.40;;;;;;;-1.15;72.14;97100.91;1671561;84;21128;-67
2021/01/28 02:15:52;;;;;;;2.98;2.62;;;;;;;-1.14;72.32;97098.28;1652553;86;21160;-66
2021/01/28 02:18:22;;;;;;;3.62;2.60;;;;;;;-1.10;72.04;97107.38;1651418;85;21171;-66
2021/01/28 02:21:28;;;;;;;0.95;0.88;;;;;;;-1.10;71.75;97100.19;1670960;84;21560;-63
2021/01/28 02:24:22;;;;;;;1.65;1.40;;;;;;;-1.09;71.19;97098.80;1669844;85;21152;-66
2021/01/28 02:26:51;;;;;;;5.40;1.17;;;;;;;-1.08;71.61;97103.44;1671114;85;21160;-66
2021/01/28 02:29:24;;;;;;;1.30;1.20;;;;;;;-1.08;71.28;97104.72;1674062;84;21580;-68
2021/01/28 02:31:55;;;;;;;1.67;1.57;;;;;;;-1.08;71.52;97104.72;1670190;84;21195;-66
2021/01/28 02:34:24;;;;;;;1.75;1.65;;;;;;;-1.13;72.08;97100.38;1670013;85;21187;-63
2021/01/28 02:37:19;;;;;;;2.45;2.05;;;;;;;-1.12;72.23;97098.16;1671205;83;21290;-64
2021/01/28 02:39:48;;;;;;;5.08;2.42;;;;;;;-1.10;71.68;97096.36;1669369;86;21258;-65
2021/01/28 02:42:29;;;;;;;2.50;2.30;;;;;;;-1.19;72.91;97102.00;1670790;83;21152;-63
2021/01/28 02:45:31;;;;;;;1.62;1.45;;;;;;;-1.21;72.61;97098.28;1670972;83;21143;-63
2021/01/28 02:54:53;;;;;;;0.45;0.45;;;;;;;-1.22;72.47;97086.91;1660398;86;21777;-65
2021/01/28 02:57:23;;;;;;;2.62;1.85;;;;;;;-1.20;72.74;97082.52;1746700;81;21121;-65
2021/01/28 02:59:53;;;;;;;3.25;2.15;;;;;;;-1.24;73.88;97086.16;1743440;80;21589;-65
2021/01/28 03:02:24;;;;;;;1.62;0.90;;;;;;;-1.24;73.28;97083.61;1744941;82;21200;-66
2021/01/28 03:04:53;;;;;;;3.98;2.37;;;;;;;-1.24;73.28;97083.61;1744839;82;21226;-66
2021/01/28 03:07:23;;;;;;;1.47;1.15;;;;;;;-1.29;73.09;97067.36;1744280;81;21163;-65
2021/01/28 03:09:51;;;;;;;2.08;1.85;;;;;;;-1.28;73.63;97078.34;1744722;82;21573;-65
2021/01/28 03:12:28;;;;;;;1.47;1.35;;;;;;;-1.27;73.12;97078.70;1743255;80;21151;-66
2021/01/28 03:15:08;;;;;;;2.08;1.27;;;;;;;-1.39;74.60;97079.44;1744289;80;21306;-66
2021/01/28 03:17:38;;;;;;;2.47;1.72;;;;;;;-1.28;72.61;97078.34;1728159;82;21592;-65
2021/01/28 03:20:12;;;;;;;2.42;1.25;;;;;;;-1.34;73.77;97075.72;1744114;82;21369;-67
2021/01/28 03:22:41;;;;;;;2.77;1.95;;;;;;;-1.29;72.99;97066.53;1743851;82;21727;-65
2021/01/28 03:25:32;;;;;;;1.27;0.98;;;;;;;-1.30;72.97;97068.70;1738910;80;21223;-65
2021/01/28 03:28:05;;;;;;;1.47;1.37;;;;;;;-1.33;72.79;97072.72;1675708;84;21178;-65
2021/01/28 03:30:43;;;;;;;1.70;1.50;;;;;;;-1.36;73.73;97080.06;1669671;84;21594;-65
2021/01/28 03:33:20;;;;;;;3.75;1.25;;;;;;;-1.33;72.05;97074.81;1675844;84;21719;-66
2021/01/28 03:35:51;;;;;;;5.40;2.00;;;;;;;-1.35;72.88;97066.88;1676666;84;21613;-66
2021/01/28 03:38:21;;;;;;;3.42;2.37;;;;;;;-1.35;72.88;97066.88;1676550;84;21954;-65
2021/01/28 03:40:52;;;;;;;3.92;2.12;;;;;;;-1.38;72.48;97067.07;1676242;84;21292;-65
2021/01/28 03:43:22;;;;;;;1.82;1.60;;;;;;;-1.38;72.48;97067.07;1676176;84;21155;-68
2021/01/28 03:45:53;;;;;;;2.08;1.67;;;;;;;-1.33;72.57;97066.35;1676909;84;21691;-65
2021/01/28 03:48:21;;;;;;;1.90;1.65;;;;;;;-1.33;72.58;97069.72;1676608;84;21250;-67
2021/01/28 03:50:54;;;;;;;2.12;1.85;;;;;;;-1.30;72.20;97068.26;1638642;85;21191;-65
2021/01/28 03:53:32;;;;;;;0.72;0.72;;;;;;;-1.32;72.70;97070.55;1675769;84;21166;-65
2021/01/28 03:56:04;;;;;;;3.25;2.42;;;;;;;-1.33;71.67;97063.80;1660532;83;21222;-66
2021/01/28 03:58:35;;;;;;;0.70;0.70;;;;;;;-1.33;71.59;97058.72;1675807;84;21556;-65
2021/01/28 04:01:22;;;;;;;5.83;1.67;;;;;;;-1.38;72.44;97065.34;1676326;84;21210;-65
2021/01/28 04:03:51;;;;;;;2.27;1.77;;;;;;;-1.34;71.96;97060.89;1675587;84;21182;-65
2021/01/28 04:06:21;;;;;;;1.40;1.30;;;;;;;-1.36;72.05;97064.00;1671640;84;21828;-65
2021/01/28 04:09:01;;;;;;;2.17;1.55;;;;;;;-1.33;71.73;97067.17;1673839;84;21166;-65
2021/01/28 04:11:39;;;;;;;2.05;1.92;;;;;;;-1.34;71.96;97066.80;1617524;84;21608;-66
2021/01/28 04:14:09;;;;;;;3.35;2.00;;;;;;;-1.31;71.48;97065.34;1620998;86;21221;-66
2021/01/28 04:16:38;;;;;;;2.85;2.10;;;;;;;-1.29;70.46;97064.81;1676151;84;21251;-66
2021/01/28 04:19:12;;;;;;;1.92;1.72;;;;;;;-1.30;70.98;97067.44;1676386;84;21329;-65
2021/01/28 04:21:42;;;;;;;3.08;1.90;;;;;;;-1.28;70.74;97066.87;1674192;84;21587;-65
2021/01/28 04:56:03;;;;;;;0.40;0.40;;;;;;;-1.35;69.19;97085.53;1716182;83;21662;-66
2021/01/28 04:58:43;;;;;;;2.55;0.98;;;;;;;-1.37;69.13;97091.64;1715868;83;21115;-66
2021/01/28 05:01:13;;;;;;;1.35;1.27;;;;;;;-1.39;69.08;97084.53;1714969;83;21365;-67
2021/01/28 05:07:02;;;;;;;1.27;1.17;;;;;;;-1.41;69.63;97091.00;1647856;86;21671;-66
2021/01/28 05:09:37;;;;;;;1.32;1.22;;;;;;;-1.45;69.79;97095.46;1680294;85;21289;-66
2021/01/28 05:12:41;;;;;;;1.27;0.90;;;;;;;-1.46;70.07;97100.62;1645639;85;21226;-65
2021/01/28 05:15:22;;;;;;;1.22;0.95;;;;;;;-1.46;70.17;97107.00;1703765;82;21166;-64
2021/01/28 05:21:45;;;;;;;1.30;1.20;;;;;;;-1.41;69.63;97096.55;1681638;82;21167;-67
2021/01/28 05:24:39;;;;;;;3.83;1.27;;;;;;;-1.44;69.70;97098.83;1705127;82;21498;-65
2021/01/28 05:27:17;;;;;;;2.15;1.02;;;;;;;-1.45;69.71;97100.55;1659133;84;21631;-64
2021/01/28 05:29:47;;;;;;;3.27;2.17;;;;;;;-1.44;69.80;97093.26;1704959;83;21163;-66
2021/01/28 05:35:46;;;;;;;0.78;0.50;;;;;;;-1.42;69.55;97098.27;1680041;83;21174;-65
2021/01/28 05:38:35;;;;;;;1.67;1.55;;;;;;;-1.42;69.43;97094.91;1678639;85;21202;-64
2021/01/28 05:41:09;;;;;;;1.52;1.42;;;;;;;-1.44;69.71;97094.53;1678129;85;21626;-64
2021/01/28 05:43:43;;;;;;;1.90;1.80;;;;;;;-1.46;69.84;97101.91;1688011;83;21200;-65
2021/01/28 06:16:25;;;;;;;1.82;1.20;;;;;;;-1.42;69.99;97121.64;1770394;79;21140;-65
2021/01/28 06:19:31;;;;;;;2.22;1.35;;;;;;;-1.41;70.17;97122.02;1775324;79;21121;-67
2021/01/28 06:22:33;;;;;;;1.65;1.12;;;;;;;-1.38;70.17;97125.64;1710920;82;21169;-66
2021/01/28 06:25:53;;;;;;;2.90;1.85;;;;;;;-1.38;70.09;97116.73;1652370;84;21596;-65
2021/01/28 06:28:44;;;;;;;2.92;1.62;;;;;;;-1.38;70.16;97129.47;1682264;84;21176;-65
2021/01/28 06:31:35;;;;;;;1.52;1.42;;;;;;;-1.46;70.84;97126.09;1703397;82;21203;-64
2021/01/28 06:38:07;;;;;;;1.98;1.57;;;;;;;-1.37;69.83;97141.30;1665827;86;21239;-65
2021/01/28 06:40:45;;;;;;;1.50;1.40;;;;;;;-1.35;70.62;97140.29;1715510;83;21123;-65
2021/01/28 06:43:41;;;;;;;3.02;2.80;;;;;;;-1.32;70.92;97141.38;1716098;83;21653;-65
2021/01/28 06:46:56;;;;;;;1.55;1.45;;;;;;;-1.30;70.74;97129.84;1723064;81;21175;-66
2021/01/28 06:49:50;;;;;;;1.37;1.27;;;;;;;-1.30;70.15;97133.66;1708591;82;21174;-65
2021/01/28 06:52:40;;;;;;;6.83;2.37;;;;;;;-1.33;70.40;97124.48;1729532;81;21146;-65
2021/01/28 06:55:49;;;;;;;3.02;2.75;;;;;;;-1.32;70.48;97132.95;1722141;82;21314;-65
2021/01/28 06:58:59;;;;;;;2.15;1.95;;;;;;;-1.20;69.76;97134.29;1779290;79;23030;-64
2021/01/28 07:01:44;;;;;;;2.65;1.67;;;;;;;-1.27;70.08;97128.37;1723305;82;21191;-63
2021/01/28 07:05:13;;;;;;;1.07;0.88;;;;;;;-1.26;70.13;97130.02;1749855;82;21648;-63
2021/01/28 07:08:18;;;;;;;2.17;2.05;;;;;;;-1.26;69.86;97135.12;1616378;88;21319;-65
2021/01/28 07:11:30;;;;;;;4.33;2.08;;;;;;;-1.19;69.37;97134.66;1585072;89;21244;-65
2021/01/28 07:14:17;;;;;;;3.65;2.50;;;;;;;-1.13;69.58;97128.39;1764462;79;22766;-65
2021/01/28 07:17:13;;;;;;;4.00;1.87;;;;;;;-1.20;69.94;97134.74;1736538;82;21601;-63
2021/01/28 07:19:53;;;;;;;3.67;2.27;;;;;;;-1.18;70.09;97135.03;1737271;82;21584;-65
2021/01/28 07:22:38;;;;;;;1.85;1.70;;;;;;;-1.18;70.09;97135.03;1738024;82;21136;-67
2021/01/28 07:25:33;;;;;;;1.87;0.90;;;;;;;-1.09;69.53;97132.41;1747953;82;21597;-65
2021/01/28 07:28:15;;;;;;;0.42;0.42;;;;;;;-1.02;69.47;97132.39;1752832;81;21155;-65
2021/01/28 07:31:06;;;;;;;1.57;1.27;;;;;;;-0.98;68.41;97132.58;1752931;80;21164;-65
2021/01/28 07:33:40;;;;;;;2.60;1.57;;;;;;;-1.02;68.37;97129.84;1752439;82;21519;-65
2021/01/28 07:36:27;;;;;;;2.62;1.50;;;;;;;-0.97;68.19;97141.38;1723166;82;21563;-64
2021/01/28 07:39:53;;;;;;;2.60;1.85;;;;;;;-0.93;68.41;97140.74;1748606;82;21152;-65
2021/01/28 07:42:32;;;;;;;16.52;8.50;;;;;;;-0.72;69.81;97144.55;1735596;81;21150;-65
2021/01/28 07:45:32;;;;;;;14.10;8.63;;;;;;;-0.72;69.81;97144.55;1734727;82;21321;-66
2021/01/28 07:48:30;;;;;;;3.25;2.40;;;;;;;-0.64;69.94;97143.63;1739240;82;21376;-65
2021/01/28 07:54:53;;;;;;;2.95;2.25;;;;;;;-0.31;73.74;97145.81;1801260;80;21575;-70
2021/01/28 07:57:52;;;;;;;3.67;2.00;;;;;;;0.29;70.04;97148.77;1653376;85;21234;-71
2021/01/28 08:00:20;;;;;;;2.98;2.05;;;;;;;0.29;70.04;97148.77;1584561;90;21211;-71
2021/01/28 08:03:05;;;;;;;6.85;2.42;;;;;;;0.46;69.41;97143.39;1590389;89;21333;-65
2021/01/28 08:05:35;;;;;;;3.75;1.57;;;;;;;0.60;67.31;97148.85;1590207;89;21205;-68
2021/01/28 08:08:11;;;;;;;2.00;1.60;;;;;;;0.59;65.73;97147.66;1590308;89;21762;-67
2021/01/28 08:10:43;;;;;;;1.75;1.10;;;;;;;0.50;64.57;97147.02;1590503;90;21253;-65
2021/01/28 08:13:28;;;;;;;0.95;0.88;;;;;;;0.41;64.38;97159.47;1590507;90;21243;-66
2021/01/28 08:16:11;;;;;;;4.20;1.72;;;;;;;0.35;64.92;97147.08;1590663;89;21368;-64
2021/01/28 08:18:40;;;;;;;1.75;0.93;;;;;;;0.28;64.94;97156.06;1589265;89;21202;-64
2021/01/28 08:21:11;;;;;;;;;;;;;;;0.26;64.55;97149.42;1592629;89;21231;-66
2021/01/28 08:23:43;;;;;;;1.92;1.50;;;;;;;0.15;63.91;97145.02;1590054;90;20422;-65
2021/01/28 08:26:34;;;;;;;3.17;1.87;;;;;;;0.15;63.91;97145.02;1585979;90;21192;-64
2021/01/28 08:29:24;;;;;;;1.77;1.50;;;;;;;0.08;64.15;97145.03;1589479;89;21207;-65
2021/01/28 08:31:56;;;;;;;1.07;0.70;;;;;;;0.12;64.43;97147.74;1685963;84;21163;-68
2021/01/28 08:34:29;;;;;;;4.08;1.75;;;;;;;0.14;64.18;97151.03;1712940;83;21164;-65
2021/01/28 08:37:24;;;;;;;3.20;1.50;;;;;;;0.15;64.25;97155.23;1716319;83;22349;-65
2021/01/28 08:39:56;;;;;;;1.72;1.50;;;;;;;0.14;63.16;97154.86;1613994;88;21620;-65
2021/01/28 08:42:34;;;;;;;0.70;0.60;;;;;;;0.12;63.94;97157.16;1637142;86;21644;-67
2021/01/28 08:45:25;;;;;;;1.30;1.20;;;;;;;0.14;62.97;97157.87;1664472;86;21185;-66
2021/01/28 08:48:10;;;;;;;2.65;1.70;;;;;;;0.17;63.20;97147.00;1664494;86;21278;-65
2021/01/28 08:50:43;;;;;;;1.95;1.32;;;;;;;0.21;63.43;97154.83;1664461;86;21672;-67
2021/01/28 08:53:22;;;;;;;0.98;0.98;;;;;;;0.12;61.34;97168.17;1664574;86;21261;-66
2021/01/28 08:55:56;;;;;;;3.40;1.10;;;;;;;0.19;62.64;97163.51;1664521;86;21363;-65
2021/01/28 08:58:46;;;;;;;1.22;1.12;;;;;;;0.25;62.50;97160.55;1663519;85;21197;-65
2021/01/28 09:01:17;;;;;;;3.83;1.35;;;;;;;0.31;62.93;97162.72;1709697;83;21159;-67
2021/01/28 09:04:03;;;;;;;1.80;1.67;;;;;;;0.35;62.39;97164.95;1717442;83;21522;-65
2021/01/28 09:07:01;;;;;;;2.02;1.10;;;;;;;0.37;62.34;97162.31;1714475;83;21129;-65
2021/01/28 09:09:34;;;;;;;1.27;0.53;;;;;;;0.45;62.34;97169.84;1688937;84;21142;-64
2021/01/28 09:12:30;;;;;;;1.47;1.10;;;;;;;0.59;62.58;97169.38;1663875;84;21173;-64
2021/01/28 09:15:24;;;;;;;2.58;1.98;;;;;;;0.71;62.39;97174.52;1687936;84;21194;-64
2021/01/28 09:17:54;;;;;;;1.37;1.27;;;;;;;0.71;61.05;97176.24;1688474;84;21171;-64
2021/01/28 09:20:31;;;;;;;1.92;1.60;;;;;;;0.75;61.58;97176.41;1663947;85;21200;-64
2021/01/28 09:23:17;;;;;;;1.80;1.27;;;;;;;0.79;61.19;97177.84;1611207;87;21195;-66
2021/01/28 09:25:50;;;;;;;1.47;1.12;;;;;;;0.86;62.46;97171.39;1636154;87;21235;-65
2021/01/28 09:28:24;;;;;;;1.55;1.37;;;;;;;0.86;61.75;97172.67;1637949;87;21660;-66
2021/01/28 09:30:54;;;;;;;3.95;1.22;;;;;;;0.86;60.74;97175.22;1648352;87;21199;-65
2021/01/28 09:33:39;;;;;;;0.72;0.72;;;;;;;0.83;60.02;97172.42;1648608;87;21175;-64
2021/01/28 09:36:47;;;;;;;1.25;1.10;;;;;;;0.81;59.73;97165.79;1648671;87;21696;-64
2021/01/28 09:39:23;;;;;;;1.82;1.05;;;;;;;0.82;61.12;97163.56;1717467;82;21550;-64
2021/01/28 09:41:52;;;;;;;1.98;1.50;;;;;;;0.79;61.22;97163.32;1717377;82;21230;-65
2021/01/28 09:44:44;;;;;;;1.00;0.90;;;;;;;0.72;58.88;97163.84;1730399;81;21315;-65
2021/01/28 09:47:18;;;;;;;0.65;0.65;;;;;;;0.64;58.59;97157.13;1718040;82;21236;-64
2021/01/28 09:49:56;;;;;;;0.40;0.30;;;;;;;0.69;60.78;97158.48;1743064;82;21205;-65
2021/01/28 09:52:39;;;;;;;4.33;1.27;;;;;;;0.69;60.92;97154.64;1716919;82;21193;-64
2021/01/28 09:55:15;;;;;;;0.70;0.65;;;;;;;0.69;60.59;97155.92;1729881;81;21228;-64
2021/01/28 09:57:43;;;;;;;;;;;;;;;0.76;60.26;97149.94;1733319;81;21764;-65
2021/01/28 10:00:35;;;;;;;1.27;0.75;;;;;;;0.80;60.25;97147.08;1730862;81;20183;-65
2021/01/28 10:03:07;;;;;;;4.70;1.37;;;;;;;0.83;59.95;97148.59;1684884;85;21179;-65
2021/01/28 10:05:35;;;;;;;2.33;1.47;;;;;;;0.69;56.28;97154.64;1684915;85;21253;-65
2021/01/28 10:08:05;;;;;;;1.30;1.05;;;;;;;0.78;57.84;97144.25;1684932;84;21238;-64
2021/01/28 10:10:37;;;;;;;1.25;0.88;;;;;;;0.90;59.38;97148.08;1684873;84;21172;-65
2021/01/28 10:13:10;;;;;;;1.52;1.17;;;;;;;1.05;58.45;97144.95;1684787;85;21258;-65
2021/01/28 10:15:38;;;;;;;1.75;1.17;;;;;;;1.18;59.28;97140.64;1684803;84;21191;-64
2021/01/28 10:18:06;;;;;;;3.98;1.98;;;;;;;1.29;57.25;97145.02;1684854;85;21587;-65
2021/01/28 10:20:35;;;;;;;1.22;0.95;;;;;;;1.25;55.67;97135.46;1684685;84;21240;-64
2021/01/28 10:23:06;;;;;;;2.17;1.40;;;;;;;1.38;56.29;97134.98;1685180;84;21243;-66
2021/01/28 10:25:38;;;;;;;2.25;1.10;;;;;;;1.41;55.37;97125.81;1685295;85;21211;-68
2021/01/28 10:28:07;;;;;;;3.90;1.32;;;;;;;1.43;55.50;97129.09;1685111;85;21592;-66
2021/01/28 10:30:35;;;;;;;1.62;1.02;;;;;;;1.45;56.16;97127.69;1685412;85;21593;-65
2021/01/28 10:33:04;;;;;;;2.50;1.35;;;;;;;1.46;56.92;97120.37;1685167;84;21220;-65
2021/01/28 10:35:34;;;;;;;0.72;0.55;;;;;;;1.51;56.96;97108.09;1685289;85;21212;-64
2021/01/28 10:38:05;;;;;;;3.42;1.40;;;;;;;1.58;56.60;97112.30;1685260;85;21223;-65
2021/01/28 10:40:34;;;;;;;1.70;1.45;;;;;;;1.61;55.42;97109.52;1685261;85;21219;-64
2021/01/28 10:43:06;;;;;;;3.47;1.55;;;;;;;1.64;57.11;97106.28;1684744;85;21253;-64
2021/01/28 10:45:39;;;;;;;3.22;2.12;;;;;;;1.73;55.99;97102.25;1684708;84;21184;-65
2021/01/28 10:48:09;;;;;;;2.20;1.37;;;;;;;1.95;57.46;97093.84;1684718;85;21220;-65
2021/01/28 10:50:38;;;;;;;4.08;1.85;;;;;;;2.06;52.99;97100.31;1684944;85;21188;-65
2021/01/28 10:53:19;;;;;;;2.92;1.80;;;;;;;2.03;53.22;97097.48;1661168;85;21176;-66
2021/01/28 10:55:47;;;;;;;2.40;1.10;;;;;;;2.01;53.06;97095.52;1653882;87;21150;-65
2021/01/28 10:58:15;;;;;;;2.02;1.55;;;;;;;2.08;53.04;97101.83;1654136;85;21181;-65
2021/01/28 11:00:44;;;;;;;2.05;1.30;;;;;;;2.04;53.66;97099.13;1654085;86;21229;-65
2021/01/28 11:03:13;;;;;;;1.85;1.40;;;;;;;1.98;55.45;97095.75;1654148;86;21220;-65
2021/01/28 11:05:41;;;;;;;3.62;2.15;;;;;;;1.92;54.05;97093.61;1654430;86;21257;-66
2021/01/28 11:08:09;;;;;;;2.80;1.67;;;;;;;1.85;52.78;97106.05;1654301;87;21185;-65
2021/01/28 11:10:38;;;;;;;1.25;1.00;;;;;;;1.88;54.33;97098.14;1653973;85;21185;-65
2021/01/28 11:13:06;;;;;;;4.00;1.80;;;;;;;1.88;53.73;97093.48;1654032;86;21209;-65
2021/01/28 11:15:39;;;;;;;4.15;1.32;;;;;;;1.76;51.52;97095.17;1653972;87;21197;-65
2021/01/28 11:18:12;;;;;;;2.08;1.22;;;;;;;1.86;53.00;97085.92;1654594;85;21638;-65
2021/01/28 11:20:41;;;;;;;2.55;1.15;;;;;;;1.93;52.96;97076.05;1655539;85;21243;-66
2021/01/28 11:23:09;;;;;;;2.12;1.40;;;;;;;2.00;54.75;97084.09;1709316;84;21261;-65
2021/01/28 11:25:37;;;;;;;2.70;1.55;;;;;;;2.03;52.93;97095.39;1709123;83;21194;-64
2021/01/28 11:28:10;;;;;;;4.35;1.32;;;;;;;1.85;51.39;97091.97;1709224;84;21150;-65
2021/01/28 11:30:39;;;;;;;19.80;10.48;;;;;;;1.93;52.85;97082.91;1709405;84;21204;-65
2021/01/28 11:33:08;;;;;;;9.80;4.65;;;;;;;2.04;54.90;97073.98;1709198;83;21522;-64
2021/01/28 11:35:38;;;;;;;8.38;4.83;;;;;;;2.13;54.48;97072.86;1709213;84;21157;-65
2021/01/28 11:38:09;;;;;;;3.40;2.02;;;;;;;2.13;54.96;97072.86;1709031;83;21126;-65
2021/01/28 11:40:37;;;;;;;3.35;1.72;;;;;;;2.12;54.31;97069.12;1709184;84;21583;-64
2021/01/28 11:43:07;;;;;;;2.00;1.42;;;;;;;2.18;53.47;97066.91;1709210;84;21945;-65
2021/01/28 11:45:38;;;;;;;2.85;1.55;;;;;;;2.39;53.35;97067.08;1709459;82;21161;-65
2021/01/28 11:48:28;;;;;;;2.33;1.15;;;;;;;2.44;52.21;97059.06;1709457;83;21174;-64
2021/01/28 11:50:57;;;;;;;1.25;0.65;;;;;;;2.42;53.13;97060.91;1688529;84;21164;-65
2021/01/28 11:53:25;;;;;;;2.17;1.42;;;;;;;2.31;50.66;97055.30;1685984;84;21608;-66
2021/01/28 11:55:54;;;;;;;0.47;0.47;;;;;;;2.21;50.84;97064.16;1689072;85;21196;-66
2021/01/28 11:58:22;;;;;;;3.40;1.02;;;;;;;2.12;51.60;97058.41;1686577;84;21572;-66
2021/01/28 12:00:51;;;;;;;1.72;1.30;;;;;;;2.07;52.09;97060.95;1626850;87;21278;-65
2021/01/28 12:03:19;;;;;;;0.98;0.72;;;;;;;1.97;50.36;97056.98;1670883;83;21215;-66
2021/01/28 12:05:47;;;;;;;1.25;0.85;;;;;;;1.95;50.45;97058.00;1634785;85;21173;-65
2021/01/28 12:08:15;;;;;;;3.17;0.93;;;;;;;1.92;51.58;97051.37;1652291;85;21166;-65
2021/01/28 12:10:44;;;;;;;1.35;0.85;;;;;;;1.93;50.27;97049.63;1652646;86;21189;-65
2021/01/28 12:13:13;;;;;;;0.82;0.82;;;;;;;1.96;51.82;97048.12;1652524;86;21186;-65
2021/01/28 12:15:42;;;;;;;1.25;1.00;;;;;;;1.94;51.54;97047.42;1652599;85;21225;-66
2021/01/28 12:18:10;;;;;;;1.95;1.65;;;;;;;1.91;51.13;97062.53;1652972;85;21241;-65
2021/01/28 12:20:39;;;;;;;1.57;1.47;;;;;;;1.89;52.47;97060.09;1654231;85;21236;-65
2021/01/28 12:23:07;;;;;;;2.60;1.60;;;;;;;1.85;53.55;97054.84;1663777;84;21580;-65
2021/01/28 12:25:37;;;;;;;3.05;1.82;;;;;;;1.60;51.37;97064.38;1623622;88;21191;-65
2021/01/28 12:28:07;;;;;;;3.80;2.10;;;;;;;1.62;52.27;97048.00;1624562;87;21357;-65
2021/01/28 12:30:36;;;;;;;4.05;2.47;;;;;;;1.60;52.28;97053.68;1624847;88;21222;-65
2021/01/28 12:33:04;;;;;;;2.17;1.57;;;;;;;1.60;53.78;97052.40;1624654;88;21233;-65
2021/01/28 12:35:34;;;;;;;2.15;0.93;;;;;;;1.60;52.40;97042.63;1625111;87;21245;-65
2021/01/28 12:38:03;;;;;;;3.20;1.65;;;;;;;1.60;52.28;97038.78;1625094;88;21193;-65
2021/01/28 12:40:32;;;;;;;3.75;1.20;;;;;;;1.62;53.21;97044.17;1606376;88;21176;-65
2021/01/28 12:43:00;;;;;;;2.02;1.67;;;;;;;1.67;53.31;97041.28;1606698;88;21200;-66
2021/01/28 12:45:29;;;;;;;2.27;1.55;;;;;;;1.60;51.01;97036.23;1606383;88;21168;-65
2021/01/28 12:47:59;;;;;;;3.20;0.72;;;;;;;1.72;52.83;97039.19;1591708;90;21254;-65
2021/01/28 12:50:29;;;;;;;3.98;1.67;;;;;;;1.75;51.47;97032.59;1625136;87;21210;-65
2021/01/28 12:52:57;;;;;;;2.85;1.47;;;;;;;1.77;51.03;97034.56;1628781;87;21255;-65
2021/01/28 12:55:26;;;;;;;2.62;1.70;;;;;;;1.84;52.35;97025.50;1675505;85;21228;-66
2021/01/28 12:57:54;;;;;;;2.87;2.33;;;;;;;1.85;49.69;97033.55;1672792;84;21207;-65
2021/01/28 13:00:24;;;;;;;3.37;1.32;;;;;;;1.97;50.82;97031.38;1638790;86;21205;-66
2021/01/28 13:02:53;;;;;;;1.95;1.47;;;;;;;2.22;52.11;97023.50;1671616;84;21185;-65
2021/01/28 13:05:22;;;;;;;6.05;1.70;;;;;;;2.64;52.08;97014.35;1659581;85;21190;-65
2021/01/28 13:07:51;;;;;;;2.05;1.25;;;;;;;2.76;50.80;97013.39;1639561;87;21232;-66
2021/01/28 13:10:19;;;;;;;2.77;1.77;;;;;;;2.70;48.65;97024.12;1639639;86;21323;-65
2021/01/28 13:12:49;;;;;;;1.47;1.10;;;;;;;2.69;49.90;97021.20;1672307;86;21189;-65
2021/01/28 13:15:39;;;;;;;2.58;1.82;;;;;;;2.64;51.11;97030.19;1639233;86;21222;-65
2021/01/28 13:18:07;;;;;;;7.08;1.40;;;;;;;2.84;48.58;97029.49;1739844;82;21158;-64
2021/01/28 13:20:35;;;;;;;1.57;1.17;;;;;;;4.25;47.26;97024.09;1736906;82;21172;-64
2021/01/28 13:23:04;;;;;;;2.00;1.45;;;;;;;5.55;49.75;97004.34;1737189;82;21176;-65
2021/01/28 13:25:34;;;;;;;2.42;1.60;;;;;;;6.86;42.91;96991.95;1736813;82;21155;-65
2021/01/28 13:28:03;;;;;;;3.17;2.00;;;;;;;8.04;48.13;96980.52;1737256;82;21151;-65
2021/01/28 13:30:32;;;;;;;3.08;1.80;;;;;;;9.20;41.21;96971.40;1736919;82;21595;-65
2021/01/28 13:33:00;;;;;;;3.20;1.42;;;;;;;9.99;40.05;96957.40;1736912;82;21164;-65
2021/01/28 13:35:28;;;;;;;6.20;2.10;;;;;;;10.74;41.93;96959.19;1737060;82;21218;-65
2021/01/28 13:37:57;;;;;;;3.30;1.62;;;;;;;11.37;35.69;96952.07;1737003;82;21251;-65
2021/01/28 13:40:30;;;;;;;3.02;2.02;;;;;;;11.92;38.91;96953.66;1737028;82;21163;-65
2021/01/28 13:43:01;;;;;;;2.33;1.40;;;;;;;12.40;34.79;96958.11;1736878;82;21219;-65
2021/01/28 13:45:30;;;;;;;3.50;2.00;;;;;;;12.60;29.82;96969.63;1736924;82;21187;-65
2021/01/28 13:48:01;;;;;;;2.80;1.57;;;;;;;12.76;31.16;96960.33;1736927;82;21164;-66
2021/01/28 13:50:38;;;;;;;3.27;1.62;;;;;;;12.87;30.44;96970.30;1736934;82;21612;-65
2021/01/28 13:53:08;;;;;;;3.02;1.60;;;;;;;13.06;31.85;96968.92;1736390;82;21155;-65
2021/01/28 13:59:14;;;;;;;3.90;2.00;;;;;;;13.46;31.94;96962.39;1738519;82;21107;-66
2021/01/28 14:02:06;;;;;;;5.83;2.55;;;;;;;13.48;28.20;96948.66;1738588;82;21156;-64
2021/01/28 14:04:35;;;;;;;3.55;1.72;;;;;;;13.70;29.78;96947.17;1738381;82;21136;-65
2021/01/28 14:07:04;;;;;;;4.00;2.55;;;;;;;13.60;28.92;96947.17;1769300;81;21128;-66
2021/01/28 14:09:32;;;;;;;3.85;1.95;;;;;;;13.74;27.51;96945.80;1769491;81;21218;-66
2021/01/28 14:12:02;;;;;;;4.80;2.37;;;;;;;13.87;25.69;96945.13;1768662;80;21176;-65
2021/01/28 14:14:30;;;;;;;2.98;2.00;;;;;;;12.79;24.26;96956.87;1769391;81;21147;-66
2021/01/28 14:16:58;;;;;;;3.40;2.37;;;;;;;13.81;29.66;96951.59;1769969;81;21119;-67
2021/01/28 14:19:28;;;;;;;2.72;1.90;;;;;;;12.78;24.29;96946.61;1769530;80;21146;-68
2021/01/28 14:22:17;;;;;;;3.72;1.72;;;;;;;12.89;26.11;96956.58;1765202;81;21291;-65
2021/01/28 14:24:47;;;;;;;3.92;2.02;;;;;;;12.92;28.83;96955.42;1674185;84;21244;-68
2021/01/28 14:27:16;;;;;;;3.12;2.10;;;;;;;12.59;28.92;96947.98;1673825;86;21735;-65
2021/01/28 14:29:44;;;;;;;2.90;1.72;;;;;;;12.48;28.74;96946.31;1673791;86;21190;-65